Time;durP1;ratioP1;P1;durP2;ratioP2;P2;SDS_P1;SDS_P2;PMS_P1;PMS_P2;Temp;Humidity;BMP_temperature;BMP_pressure;BME280_temperature;BME280_humidity;BME280_pressure;Samples;Min_cycle;Max_cycle;Signal;HPM_P1;HPM_P2
2022/03/16 00:01:07;;;;;;;49.50;44.20;;;;;;;7.58;63.72;101004.81;109738;1260;21963;-75
2022/03/16 00:03:44;;;;;;;52.50;47.00;;;;;;;7.62;63.67;100999.92;109512;1261;22524;-75
2022/03/16 00:06:18;;;;;;;52.60;45.90;;;;;;;7.63;63.69;101002.45;109480;1260;23027;-76
2022/03/16 00:08:53;;;;;;;47.30;42.50;;;;;;;7.64;63.74;101002.01;109513;1260;21992;-76
2022/03/16 00:11:27;;;;;;;51.90;46.60;;;;;;;7.65;63.67;101004.55;109206;1261;21984;-76
2022/03/16 00:14:03;;;;;;;50.10;44.70;;;;;;;7.66;63.67;101000.27;109809;1253;23624;-76
2022/03/16 00:16:40;;;;;;;52.00;46.50;;;;;;;7.67;63.63;101002.13;110273;1253;22870;-76
2022/03/16 00:19:17;;;;;;;51.30;45.20;;;;;;;7.65;63.61;100996.67;110548;1250;21952;-76
2022/03/16 00:21:48;;;;;;;50.50;45.10;;;;;;;7.63;63.54;100996.11;110692;1249;22059;-77
2022/03/16 00:24:19;;;;;;;50.40;45.20;;;;;;;7.61;63.29;100994.61;110476;1249;22972;-76
2022/03/16 00:26:58;;;;;;;49.30;44.10;;;;;;;7.59;63.50;100996.19;110551;1249;22071;-75
2022/03/16 00:29:36;;;;;;;51.30;45.90;;;;;;;7.59;63.61;100994.21;110674;1249;21956;-76
2022/03/16 00:32:19;;;;;;;;;;;;;;;7.58;63.56;100990.06;110746;1248;23551;-76
2022/03/16 00:34:54;;;;;;;49.60;42.50;;;;;;;7.50;63.69;100990.04;110714;1249;21973;-76
2022/03/16 00:37:32;;;;;;;51.30;45.80;;;;;;;7.51;63.80;100980.71;110248;1254;21953;-76
2022/03/16 00:40:11;;;;;;;50.60;45.40;;;;;;;7.52;63.77;100976.34;110039;1254;23912;-75
2022/03/16 00:42:50;;;;;;;50.80;45.40;;;;;;;7.53;63.69;100975.41;110040;1255;21979;-76
2022/03/16 00:45:24;;;;;;;52.90;47.40;;;;;;;7.55;63.72;100972.30;110180;1254;22118;-76
2022/03/16 00:48:00;;;;;;;50.70;45.70;;;;;;;7.55;63.68;100971.36;110284;1254;23060;-76
2022/03/16 00:50:37;;;;;;;54.70;48.60;;;;;;;7.54;63.68;100968.98;110043;1255;23816;-77
2022/03/16 00:53:13;;;;;;;55.90;50.00;;;;;;;7.52;63.78;100968.84;110185;1255;22032;-76
2022/03/16 00:55:48;;;;;;;54.20;48.80;;;;;;;7.50;63.76;100962.23;109541;1255;23491;-74
2022/03/16 00:58:24;;;;;;;55.00;49.30;;;;;;;7.46;63.72;100959.02;109955;1257;23037;-75
2022/03/16 01:00:53;;;;;;;53.10;47.70;;;;;;;7.44;63.76;100959.05;110210;1256;21970;-76
2022/03/16 01:03:34;;;;;;;53.70;48.20;;;;;;;7.43;63.83;100962.49;109389;1261;22036;-76
2022/03/16 01:06:15;;;;;;;49.40;44.20;;;;;;;7.41;63.87;100964.89;109785;1259;23697;-76
2022/03/16 01:08:57;;;;;;;50.40;45.10;;;;;;;7.42;63.97;100969.73;109098;1267;22110;-75
2022/03/16 01:11:29;;;;;;;50.80;45.30;;;;;;;7.44;63.97;100977.97;108749;1270;23051;-75
2022/03/16 01:14:02;;;;;;;50.50;45.40;;;;;;;7.46;63.92;100983.56;108367;1276;23666;-75
2022/03/16 01:16:38;;;;;;;48.00;43.20;;;;;;;7.45;63.84;100990.70;108419;1273;22102;-75
2022/03/16 01:19:14;;;;;;;47.70;42.70;;;;;;;7.42;63.94;100991.13;108496;1273;23740;-75
2022/03/16 01:21:59;;;;;;;50.60;45.40;;;;;;;7.41;64.08;100989.96;108755;1270;23650;-75
2022/03/16 01:24:29;;;;;;;50.50;45.30;;;;;;;7.44;64.11;100996.75;108447;1273;22056;-74
2022/03/16 01:27:00;;;;;;;50.00;44.80;;;;;;;7.42;63.96;101002.45;108600;1267;24529;-75
2022/03/16 01:29:53;;;;;;;49.30;44.20;;;;;;;7.38;63.87;100999.34;108882;1268;23732;-75
2022/03/16 01:32:32;;;;;;;49.70;44.60;;;;;;;7.31;63.93;100997.70;109062;1263;22465;-76
2022/03/16 01:35:07;;;;;;;52.60;47.20;;;;;;;7.31;64.24;100998.21;109296;1263;21974;-76
2022/03/16 01:37:45;;;;;;;52.60;47.10;;;;;;;7.34;64.25;101000.41;109928;1261;23599;-76
2022/03/16 01:40:15;;;;;;;;;;;;;;;7.37;64.36;100995.56;109283;1265;22915;-74
2022/03/16 01:42:50;;;;;;;55.90;49.90;;;;;;;7.35;64.36;101000.50;109454;1259;23033;-76
2022/03/16 01:45:20;;;;;;;56.60;50.60;;;;;;;7.37;64.41;100996.83;109880;1259;22956;-76
2022/03/16 01:47:53;;;;;;;53.50;48.00;;;;;;;7.43;64.44;100996.78;110024;1253;23052;-76
2022/03/16 01:50:27;;;;;;;55.40;49.70;;;;;;;7.46;64.30;100999.70;110344;1253;22452;-76
2022/03/16 01:53:05;;;;;;;53.50;48.20;;;;;;;7.45;64.11;100999.39;110287;1253;21963;-76
2022/03/16 01:55:42;;;;;;;58.40;52.10;;;;;;;7.42;64.08;100999.46;109931;1259;21980;-76
2022/03/16 01:58:13;;;;;;;54.90;49.40;;;;;;;7.40;64.09;100998.64;110016;1255;21961;-76
2022/03/16 02:01:02;;;;;;;54.00;48.40;;;;;;;7.37;63.99;101000.13;110335;1253;23583;-76
2022/03/16 02:03:39;;;;;;;56.30;50.40;;;;;;;7.34;64.08;100998.61;110569;1253;22191;-76
2022/03/16 02:06:18;;;;;;;54.70;48.50;;;;;;;7.34;64.15;100997.63;110157;1256;21985;-76
2022/03/16 02:08:49;;;;;;;54.60;48.80;;;;;;;7.36;64.17;100997.77;110286;1253;23040;-74
2022/03/16 02:11:21;;;;;;;53.50;48.00;;;;;;;7.40;64.20;100996.35;109985;1254;21958;-76
2022/03/16 02:13:53;;;;;;;52.80;47.20;;;;;;;7.45;64.13;100997.73;110274;1259;22049;-76
2022/03/16 02:16:34;;;;;;;53.80;48.40;;;;;;;7.47;64.12;100999.56;109866;1257;23596;-75
2022/03/16 02:19:10;;;;;;;49.60;44.30;;;;;;;7.49;64.11;101001.73;109859;1259;22035;-75
2022/03/16 02:21:50;;;;;;;53.10;47.40;;;;;;;7.50;64.08;101004.92;109987;1254;21967;-75
2022/03/16 02:24:30;;;;;;;51.50;46.10;;;;;;;7.51;63.99;101010.46;109761;1262;21982;-75
2022/03/16 02:27:03;;;;;;;56.20;50.30;;;;;;;7.49;63.87;101010.81;109293;1262;22076;-75
2022/03/16 02:29:43;;;;;;;53.00;47.40;;;;;;;7.48;63.97;101014.39;109334;1262;22730;-76
2022/03/16 02:32:15;;;;;;;53.30;47.80;;;;;;;7.47;63.94;101018.70;109033;1263;21982;-76
2022/03/16 02:34:47;;;;;;;55.80;50.10;;;;;;;7.46;63.92;101018.64;109146;1263;22064;-76
2022/03/16 02:37:30;;;;;;;55.80;50.00;;;;;;;7.45;63.85;101020.48;109210;1264;22079;-76
2022/03/16 02:40:05;;;;;;;56.70;51.10;;;;;;;7.46;63.96;101023.55;109233;1264;23211;-75
2022/03/16 02:42:43;;;;;;;55.40;49.90;;;;;;;7.49;63.93;101025.03;109529;1258;21994;-76
2022/03/16 02:45:19;;;;;;;52.80;47.30;;;;;;;7.51;64.00;101026.59;110005;1255;21970;-77
2022/03/16 02:47:50;;;;;;;54.10;48.50;;;;;;;7.54;63.98;101027.61;109603;1262;22733;-77
2022/03/16 02:50:21;;;;;;;55.50;49.80;;;;;;;7.57;63.78;101027.48;109906;1258;23003;-76
2022/03/16 02:53:08;;;;;;;56.60;50.80;;;;;;;7.58;63.69;101028.15;109973;1256;24925;-77
2022/03/16 02:55:51;;;;;;;58.90;52.90;;;;;;;7.56;63.70;101032.70;110207;1256;23087;-76
2022/03/16 02:58:24;;;;;;;59.20;53.20;;;;;;;7.54;63.74;101034.80;110013;1256;21950;-75
2022/03/16 03:00:56;;;;;;;59.20;53.00;;;;;;;7.50;63.61;101037.53;110424;1256;23027;-75
2022/03/16 03:03:29;;;;;;;58.30;52.40;;;;;;;7.46;63.60;101036.33;110355;1256;22028;-75
2022/03/16 03:06:18;;;;;;;59.10;52.80;;;;;;;7.42;63.60;101031.77;110056;1256;22384;-75
2022/03/16 03:08:56;;;;;;;59.40;53.40;;;;;;;7.40;63.60;101032.32;109559;1261;22415;-75
2022/03/16 03:11:27;;;;;;;61.40;55.50;;;;;;;7.38;63.69;101034.20;108833;1267;22436;-75
2022/03/16 03:14:01;;;;;;;58.10;52.20;;;;;;;7.38;63.61;101038.09;109398;1261;23602;-75
2022/03/16 03:16:31;;;;;;;55.10;49.50;;;;;;;7.36;63.68;101036.15;109532;1262;23688;-76
2022/03/16 03:19:04;;;;;;;54.40;49.20;;;;;;;7.35;63.74;101036.20;109676;1262;21979;-75
2022/03/16 03:21:36;;;;;;;54.60;48.90;;;;;;;7.37;63.77;101039.55;109627;1262;21995;-76
2022/03/16 03:24:16;;;;;;;56.10;50.30;;;;;;;7.38;63.74;101041.22;109598;1262;21977;-75
2022/03/16 03:26:49;;;;;;;58.80;52.70;;;;;;;7.36;63.72;101042.79;109689;1257;23042;-75
2022/03/16 03:29:23;;;;;;;58.70;52.80;;;;;;;7.32;63.73;101043.10;110214;1249;21968;-75
2022/03/16 03:31:58;;;;;;;58.70;52.80;;;;;;;7.27;63.60;101046.36;110724;1249;21967;-74
2022/03/16 03:34:40;;;;;;;57.60;51.50;;;;;;;7.22;63.65;101042.93;110903;1249;22011;-75
2022/03/16 03:37:16;;;;;;;57.10;51.20;;;;;;;7.17;63.71;101044.35;110681;1248;21965;-75
2022/03/16 03:39:52;;;;;;;59.00;52.80;;;;;;;7.15;63.72;101046.20;110683;1249;23589;-75
2022/03/16 03:42:35;;;;;;;55.80;50.10;;;;;;;7.09;63.74;101049.42;110679;1249;23711;-75
2022/03/16 03:45:10;;;;;;;58.10;52.10;;;;;;;7.03;63.89;101049.89;110605;1249;22758;-76
2022/03/16 03:47:50;;;;;;;58.00;52.10;;;;;;;7.01;64.04;101050.42;110105;1256;21957;-76
2022/03/16 03:50:21;;;;;;;60.80;54.50;;;;;;;7.00;64.10;101051.23;110330;1256;23078;-76
2022/03/16 03:53:00;;;;;;;59.30;53.40;;;;;;;6.96;64.16;101055.73;110234;1256;22014;-76
2022/03/16 03:55:33;;;;;;;58.90;53.00;;;;;;;6.94;64.22;101058.95;110321;1256;21963;-75
2022/03/16 03:58:05;;;;;;;59.10;52.90;;;;;;;6.92;64.32;101061.91;110252;1255;24272;-75
2022/03/16 04:00:39;;;;;;;63.30;56.90;;;;;;;6.88;64.31;101065.20;110159;1256;22742;-76
2022/03/16 04:03:18;;;;;;;61.60;55.40;;;;;;;6.84;64.43;101069.03;110407;1256;21977;-76
2022/03/16 04:05:51;;;;;;;60.90;54.90;;;;;;;6.78;64.46;101068.98;110434;1249;22834;-76
2022/03/16 04:08:20;;;;;;;58.50;52.90;;;;;;;6.72;64.50;101068.80;110517;1249;22043;-76
2022/03/16 04:10:52;;;;;;;59.30;53.20;;;;;;;6.66;64.47;101072.09;110430;1254;21973;-76
2022/03/16 04:13:22;;;;;;;60.90;54.90;;;;;;;6.62;64.64;101076.75;110204;1255;22926;-76
2022/03/16 04:16:36;;;;;;;60.30;54.30;;;;;;;6.61;64.87;101077.02;110240;1255;23040;-76
2022/03/16 04:19:13;;;;;;;60.90;54.70;;;;;;;6.60;65.01;101078.82;110277;1255;22008;-76
2022/03/16 04:22:04;;;;;;;62.90;56.40;;;;;;;6.63;65.06;101077.79;110247;1255;21962;-76
2022/03/16 04:24:42;;;;;;;60.90;54.90;;;;;;;6.62;65.14;101080.13;109469;1261;21984;-76
2022/03/16 04:27:20;;;;;;;61.20;55.00;;;;;;;6.62;65.14;101077.12;109220;1261;21995;-76
2022/03/16 04:29:55;;;;;;;59.50;53.20;;;;;;;6.64;65.13;101079.45;110025;1257;23038;-76
2022/03/16 04:32:27;;;;;;;57.40;51.60;;;;;;;6.64;65.11;101082.21;110249;1257;23579;-76
2022/03/16 04:35:02;;;;;;;57.10;51.40;;;;;;;6.64;65.13;101085.58;109937;1258;24384;-75
2022/03/16 04:37:33;;;;;;;57.20;51.50;;;;;;;6.64;65.17;101089.20;110138;1256;21962;-76
2022/03/16 04:40:13;;;;;;;60.60;54.20;;;;;;;6.63;65.15;101093.66;109997;1258;22014;-76
2022/03/16 04:42:52;;;;;;;60.30;53.90;;;;;;;6.61;65.18;101091.20;110068;1249;21965;-76
2022/03/16 04:45:37;;;;;;;60.80;54.40;;;;;;;6.60;65.19;101094.23;110767;1250;23565;-77
2022/03/16 04:48:11;;;;;;;61.00;54.50;;;;;;;6.60;65.26;101099.00;110588;1253;22293;-76
2022/03/16 04:50:49;;;;;;;59.50;53.30;;;;;;;6.60;65.29;101104.76;110620;1253;21961;-76
2022/03/16 04:53:22;;;;;;;56.90;51.20;;;;;;;6.59;65.29;101112.88;110489;1253;21962;-75
2022/03/16 04:56:06;;;;;;;58.80;52.90;;;;;;;6.56;65.28;101122.21;109836;1259;21965;-75
2022/03/16 04:58:36;;;;;;;59.60;53.90;;;;;;;6.52;65.23;101126.91;109373;1261;22036;-75
2022/03/16 05:01:11;;;;;;;61.70;55.70;;;;;;;6.48;65.17;101132.16;109564;1260;22103;-75
2022/03/16 05:03:48;;;;;;;62.50;56.30;;;;;;;6.43;65.22;101135.70;109987;1259;22026;-76
2022/03/16 05:06:20;;;;;;;65.60;58.50;;;;;;;6.39;65.26;101142.34;109774;1255;23035;-76
2022/03/16 05:08:52;;;;;;;61.90;55.90;;;;;;;6.35;65.33;101151.52;109577;1259;21962;-76
2022/03/16 05:11:42;;;;;;;64.50;57.80;;;;;;;6.31;65.41;101153.43;109609;1259;22029;-75
2022/03/16 05:14:11;;;;;;;61.00;54.90;;;;;;;6.28;65.55;101154.53;109185;1261;21955;-76
2022/03/16 05:16:40;;;;;;;60.30;54.30;;;;;;;6.27;65.70;101157.25;110044;1260;22113;-76
2022/03/16 05:19:18;;;;;;;60.50;54.40;;;;;;;6.28;65.72;101162.24;110131;1258;23592;-75
2022/03/16 05:21:53;;;;;;;79.20;71.30;;;;;;;6.28;65.78;101161.02;109672;1259;22264;-75
2022/03/16 05:24:28;;;;;;;59.70;53.80;;;;;;;6.27;65.68;101161.40;109470;1259;22039;-76
2022/03/16 05:27:04;;;;;;;60.10;54.00;;;;;;;6.28;65.76;101164.53;109979;1259;23588;-76
2022/03/16 05:29:36;;;;;;;64.00;57.80;;;;;;;6.28;65.83;101166.82;109392;1261;23676;-75
2022/03/16 05:32:09;;;;;;;64.30;57.60;;;;;;;6.27;65.82;101167.39;109802;1259;21973;-76
2022/03/16 05:34:39;;;;;;;68.50;58.50;;;;;;;6.26;65.87;101173.21;110058;1255;21968;-76
2022/03/16 05:37:17;;;;;;;65.80;59.10;;;;;;;6.28;65.91;101181.34;110370;1255;21973;-76
2022/03/16 05:39:50;;;;;;;66.90;60.30;;;;;;;6.26;65.86;101183.77;110386;1251;23552;-76
2022/03/16 05:42:20;;;;;;;63.10;56.70;;;;;;;6.24;65.85;101185.10;110857;1249;21962;-76
2022/03/16 05:44:59;;;;;;;65.20;59.00;;;;;;;6.22;65.83;101187.39;110346;1255;21993;-77
2022/03/16 05:47:33;;;;;;;68.00;61.10;;;;;;;6.20;65.90;101188.91;110454;1255;21962;-75
2022/03/16 05:50:04;;;;;;;66.20;59.20;;;;;;;6.20;65.95;101186.81;110266;1255;21960;-75
2022/03/16 05:52:37;;;;;;;68.10;61.30;;;;;;;6.21;66.02;101193.96;109922;1258;21968;-76
2022/03/16 05:55:09;;;;;;;69.20;62.40;;;;;;;6.22;66.04;101193.70;109844;1261;23625;-76
2022/03/16 05:57:44;;;;;;;77.10;69.40;;;;;;;6.23;66.14;101200.58;109486;1265;21980;-76
2022/03/16 06:00:19;;;;;;;70.90;63.70;;;;;;;6.26;66.25;101206.27;109506;1265;21976;-77
2022/03/16 06:02:50;;;;;;;69.60;62.90;;;;;;;6.31;66.23;101213.81;109702;1259;23593;-77
2022/03/16 06:05:25;;;;;;;153.80;77.10;;;;;;;6.34;66.22;101221.79;109492;1259;21969;-76
2022/03/16 06:07:55;;;;;;;68.40;61.60;;;;;;;6.38;66.25;101228.64;109525;1259;21966;-76
2022/03/16 06:10:24;;;;;;;68.40;61.50;;;;;;;6.43;66.28;101230.69;110122;1259;23677;-76
2022/03/16 06:13:03;;;;;;;71.30;63.50;;;;;;;6.49;66.20;101233.05;109698;1264;22978;-76
2022/03/16 06:15:42;;;;;;;88.60;72.10;;;;;;;6.52;66.12;101238.89;109332;1262;23058;-77
2022/03/16 06:18:14;;;;;;;83.00;65.80;;;;;;;6.56;66.10;101244.23;109895;1258;21960;-75
2022/03/16 06:20:52;;;;;;;71.80;63.60;;;;;;;6.57;65.94;101247.23;110493;1256;23598;-76
2022/03/16 06:23:24;;;;;;;71.90;64.20;;;;;;;6.60;65.80;101255.11;110335;1256;21966;-75
2022/03/16 06:25:54;;;;;;;75.30;64.20;;;;;;;6.63;65.79;101256.29;110197;1256;22833;-75
2022/03/16 06:28:23;;;;;;;69.80;62.50;;;;;;;6.67;65.66;101259.48;110460;1256;23584;-75
2022/03/16 06:30:52;;;;;;;67.10;60.00;;;;;;;6.70;65.57;101261.52;110606;1250;21980;-75
2022/03/16 06:33:24;;;;;;;;;;;;;;;6.74;65.55;101268.91;110857;1250;22609;-76
2022/03/16 06:35:54;;;;;;;68.00;61.00;;;;;;;6.70;65.49;101273.79;110819;1250;22735;-75
2022/03/16 06:38:23;;;;;;;70.00;62.80;;;;;;;6.72;65.58;101277.08;110944;1250;23574;-76
2022/03/16 06:40:53;;;;;;;71.00;61.80;;;;;;;6.78;65.47;101280.67;110717;1250;22726;-76
2022/03/16 06:43:22;;;;;;;68.20;61.30;;;;;;;6.83;65.44;101282.68;110761;1250;23577;-75
2022/03/16 06:45:52;;;;;;;72.70;65.20;;;;;;;6.87;65.36;101283.27;110725;1250;21950;-75
2022/03/16 06:48:24;;;;;;;75.60;67.60;;;;;;;6.92;65.32;101284.83;110575;1249;23727;-76
2022/03/16 06:50:54;;;;;;;75.90;63.00;;;;;;;6.95;65.25;101289.14;110736;1250;24348;-76
2022/03/16 06:53:23;;;;;;;74.30;66.40;;;;;;;7.00;65.33;101291.38;110545;1250;21953;-75
2022/03/16 06:55:56;;;;;;;77.20;69.00;;;;;;;7.07;65.26;101296.60;110458;1256;23677;-76
2022/03/16 06:58:25;;;;;;;78.20;69.90;;;;;;;7.14;65.28;101299.85;110283;1257;23027;-76
2022/03/16 07:00:55;;;;;;;76.10;68.20;;;;;;;7.22;65.15;101302.59;110335;1256;22010;-76
2022/03/16 07:03:24;;;;;;;77.90;69.50;;;;;;;7.29;65.14;101306.36;110209;1256;23720;-76
2022/03/16 07:06:00;;;;;;;77.40;69.60;;;;;;;7.32;64.76;101307.88;109625;1262;21981;-75
2022/03/16 07:08:29;;;;;;;80.30;72.20;;;;;;;7.31;64.58;101307.64;109791;1262;22014;-76
2022/03/16 07:11:01;;;;;;;79.40;71.40;;;;;;;7.31;64.57;101306.20;109576;1262;22639;-76
2022/03/16 07:13:30;;;;;;;70.10;63.20;;;;;;;7.34;64.49;101309.35;109742;1254;23086;-79
2022/03/16 07:16:08;;;;;;;68.80;61.60;;;;;;;7.35;64.54;101308.35;110543;1254;22366;-82
2022/03/16 07:18:45;;;;;;;67.50;60.60;;;;;;;7.43;64.81;101308.41;110657;1253;22736;-77
2022/03/16 07:21:16;;;;;;;66.80;60.10;;;;;;;7.54;64.71;101308.89;110885;1253;23136;-83
2022/03/16 07:23:47;;;;;;;116.80;66.90;;;;;;;7.66;64.55;101314.39;109845;1256;23585;-77
2022/03/16 07:26:16;;;;;;;67.50;60.60;;;;;;;7.79;64.39;101317.92;110338;1256;22983;-78
2022/03/16 07:28:48;;;;;;;68.10;61.30;;;;;;;7.88;63.99;101320.33;110197;1254;22815;-78
2022/03/16 07:31:18;;;;;;;69.10;62.20;;;;;;;7.89;63.36;101320.91;110447;1256;22065;-77
2022/03/16 07:33:47;;;;;;;64.60;58.40;;;;;;;7.88;63.16;101325.73;110326;1256;22210;-78
2022/03/16 07:36:16;;;;;;;67.30;60.80;;;;;;;7.90;63.12;101329.29;109969;1260;24385;-77
2022/03/16 07:38:47;;;;;;;65.30;58.60;;;;;;;7.93;62.99;101333.08;109728;1261;22095;-79
2022/03/16 07:41:16;;;;;;;66.10;59.50;;;;;;;7.96;62.78;101331.56;109159;1267;23789;-78
2022/03/16 07:43:46;;;;;;;64.90;58.60;;;;;;;8.01;62.62;101333.28;108940;1267;23589;-78
2022/03/16 07:46:15;;;;;;;61.10;54.90;;;;;;;8.08;62.68;101332.70;109059;1267;22039;-76
2022/03/16 07:48:45;;;;;;;64.00;57.80;;;;;;;8.17;62.62;101333.52;109534;1261;22377;-78
2022/03/16 07:51:16;;;;;;;62.90;56.60;;;;;;;8.29;62.59;101332.69;109970;1261;23574;-77
2022/03/16 07:53:47;;;;;;;60.20;53.90;;;;;;;8.56;63.56;101337.98;109695;1254;21956;-76
2022/03/16 07:56:17;;;;;;;56.60;51.40;;;;;;;9.00;64.49;101343.00;109775;1261;21975;-77
2022/03/16 07:58:48;;;;;;;56.30;51.10;;;;;;;9.52;64.21;101343.70;109185;1259;22213;-78
2022/03/16 08:01:18;;;;;;;54.30;49.30;;;;;;;9.99;62.92;101343.20;109539;1265;23677;-76
2022/03/16 08:03:48;;;;;;;52.00;47.00;;;;;;;10.37;61.15;101349.43;108874;1270;22080;-77
2022/03/16 08:06:20;;;;;;;51.00;46.20;;;;;;;10.66;59.85;101343.52;108817;1270;21988;-78
2022/03/16 08:09:53;;;;;;;48.40;42.20;;;;;;;11.08;58.80;101347.14;108695;1271;21996;-77
2022/03/16 08:12:24;;;;;;;48.10;43.70;;;;;;;11.46;57.91;101351.58;108668;1272;22057;-77
2022/03/16 08:15:06;;;;;;;51.50;46.50;;;;;;;11.81;56.56;101351.55;108406;1276;24042;-77
2022/03/16 08:17:41;;;;;;;45.80;41.40;;;;;;;12.13;55.51;101349.39;108680;1273;22001;-77
2022/03/16 08:20:17;;;;;;;48.50;43.80;;;;;;;12.47;54.46;101349.17;108154;1273;431535;-77
2022/03/16 08:22:46;;;;;;;;;;;;;;;12.72;53.08;101352.41;109238;1265;23996;-79
2022/03/16 08:25:15;;;;;;;41.70;37.50;;;;;;;12.84;52.23;101355.99;109460;1259;24413;-77
2022/03/16 08:27:44;;;;;;;40.30;36.50;;;;;;;12.93;51.20;101359.66;110138;1257;21967;-77
2022/03/16 08:30:14;;;;;;;42.20;38.10;;;;;;;13.05;50.81;101358.23;109816;1257;21963;-77
2022/03/16 08:32:43;;;;;;;40.70;36.90;;;;;;;13.27;50.79;101363.04;110048;1259;23677;-77
2022/03/16 08:35:14;;;;;;;41.20;37.20;;;;;;;13.51;50.18;101364.57;110010;1259;22049;-78
2022/03/16 08:37:43;;;;;;;39.20;35.70;;;;;;;13.71;49.09;101369.92;110051;1254;21967;-77
2022/03/16 08:40:15;;;;;;;42.00;37.90;;;;;;;13.86;48.67;101373.76;110657;1249;21972;-76
2022/03/16 08:42:44;;;;;;;36.20;32.90;;;;;;;14.08;48.01;101378.48;110142;1257;21985;-77
2022/03/16 08:45:13;;;;;;;38.20;34.80;;;;;;;14.20;47.13;101379.53;110078;1258;22053;-78
2022/03/16 08:48:01;;;;;;;35.10;32.00;;;;;;;14.24;46.51;101376.38;110396;1258;21976;-77
2022/03/16 08:50:32;;;;;;;38.50;34.80;;;;;;;14.30;46.43;101375.92;109952;1257;22441;-76
2022/03/16 08:53:03;;;;;;;39.70;36.20;;;;;;;14.48;46.19;101380.56;110031;1256;23615;-78
2022/03/16 08:55:34;;;;;;;40.60;36.90;;;;;;;14.61;45.18;101383.21;110518;1253;23598;-78
2022/03/16 08:58:04;;;;;;;39.70;36.10;;;;;;;14.65;44.77;101389.17;110162;1259;23715;-78
2022/03/16 09:00:37;;;;;;;39.70;36.20;;;;;;;14.72;44.57;101387.98;109602;1262;21969;-76
2022/03/16 09:03:06;;;;;;;39.00;35.60;;;;;;;14.83;44.28;101392.34;109227;1265;23764;-77
2022/03/16 09:05:37;;;;;;;38.30;34.50;;;;;;;14.92;44.07;101393.05;109201;1265;22083;-77
2022/03/16 09:08:06;;;;;;;40.40;36.50;;;;;;;14.98;43.38;101401.64;109559;1259;23054;-76
2022/03/16 09:10:38;;;;;;;42.20;38.30;;;;;;;15.06;43.28;101401.48;109843;1259;22164;-77
2022/03/16 09:13:07;;;;;;;40.10;36.40;;;;;;;15.15;43.21;101408.96;109851;1259;23580;-78
2022/03/16 09:15:39;;;;;;;42.70;38.40;;;;;;;15.30;42.84;101405.83;109884;1254;21960;-79
2022/03/16 09:18:09;;;;;;;43.10;38.80;;;;;;;15.47;42.59;101404.75;110530;1252;22023;-78
2022/03/16 09:20:38;;;;;;;41.20;37.50;;;;;;;15.72;42.40;101405.77;110528;1254;21962;-78
2022/03/16 09:23:11;;;;;;;41.90;37.80;;;;;;;16.02;41.92;101405.96;110617;1254;21969;-79
2022/03/16 09:25:43;;;;;;;41.90;37.10;;;;;;;16.19;40.74;101408.64;110383;1254;23059;-80
2022/03/16 09:28:13;;;;;;;44.60;40.00;;;;;;;16.29;40.31;101413.56;110412;1247;22040;-80
2022/03/16 09:30:42;;;;;;;44.10;40.10;;;;;;;16.26;39.55;101413.55;111133;1248;21956;-81
2022/03/16 09:33:14;;;;;;;50.50;43.20;;;;;;;16.15;39.16;101417.30;111065;1247;22745;-78
2022/03/16 09:35:48;;;;;;;47.80;43.60;;;;;;;16.10;39.35;101419.85;110862;1250;22729;-79
2022/03/16 09:38:20;;;;;;;47.70;43.00;;;;;;;16.05;38.79;101421.05;110808;1250;21968;-78
2022/03/16 09:40:56;;;;;;;80.70;49.90;;;;;;;16.03;38.83;101418.70;110826;1247;23060;-78
2022/03/16 09:43:25;;;;;;;54.60;49.40;;;;;;;16.04;38.30;101424.94;110845;1247;22017;-81
2022/03/16 09:46:06;;;;;;;59.60;53.60;;;;;;;15.91;37.38;101428.19;110529;1256;23587;-79
2022/03/16 09:48:38;;;;;;;54.70;49.10;;;;;;;15.70;37.36;101423.12;110384;1256;21983;-80
2022/03/16 09:51:10;;;;;;;57.40;51.80;;;;;;;15.72;37.78;101430.36;109663;1262;22061;-78
2022/03/16 09:53:40;;;;;;;61.20;55.10;;;;;;;15.90;37.48;101431.91;109570;1265;22075;-78
2022/03/16 09:56:09;;;;;;;56.60;50.70;;;;;;;16.03;36.74;101437.10;109251;1265;23196;-79
2022/03/16 09:58:42;;;;;;;57.70;52.10;;;;;;;16.05;36.09;101436.60;109251;1265;23766;-78
2022/03/16 10:01:14;;;;;;;54.70;49.30;;;;;;;16.13;35.83;101437.88;109143;1265;21973;-78
2022/03/16 10:03:49;;;;;;;56.20;50.70;;;;;;;16.31;35.75;101438.55;109333;1262;21987;-79
2022/03/16 10:06:24;;;;;;;52.10;47.40;;;;;;;16.57;35.53;101438.69;108965;1270;21994;-78
2022/03/16 10:14:38;;;;;;;48.00;43.50;;;;;;;17.48;34.10;101443.95;109724;1264;21962;-78
2022/03/16 10:19:57;;;;;;;44.80;40.50;;;;;;;17.33;32.47;101446.69;109715;1262;21970;-78
2022/03/16 10:22:31;;;;;;;47.60;42.80;;;;;;;16.81;32.96;101437.11;109529;1262;21967;-78
2022/03/16 10:25:07;;;;;;;50.00;38.40;;;;;;;16.48;33.32;101443.38;110219;1256;21958;-79
2022/03/16 10:27:38;;;;;;;45.50;41.20;;;;;;;16.13;33.73;101451.50;110291;1259;21939;-80
2022/03/16 10:30:08;;;;;;;45.90;41.40;;;;;;;15.77;34.14;101453.58;110295;1254;23026;-81
2022/03/16 10:32:54;;;;;;;48.80;42.60;;;;;;;15.31;34.20;101453.83;110921;1253;21926;-80
2022/03/16 10:35:24;;;;;;;46.10;41.50;;;;;;;14.77;34.83;101454.09;110767;1253;22200;-79
2022/03/16 10:38:06;;;;;;;45.80;41.10;;;;;;;14.46;35.98;101460.30;110441;1259;22040;-79
2022/03/16 10:40:36;;;;;;;45.50;41.10;;;;;;;14.45;36.64;101465.58;110230;1260;24409;-78
2022/03/16 10:46:38;;;;;;;36.20;32.90;;;;;;;14.21;36.39;101468.11;110241;1255;21967;-77
2022/03/16 10:49:12;;;;;;;37.80;34.10;;;;;;;14.16;37.09;101463.73;110573;1255;23057;-78
2022/03/16 10:51:59;;;;;;;34.50;30.50;;;;;;;14.29;36.89;101466.70;110476;1255;23117;-79
2022/03/16 10:54:35;;;;;;;37.00;32.90;;;;;;;14.16;36.29;101469.55;110001;1259;22139;-79
2022/03/16 10:57:10;;;;;;;35.60;32.00;;;;;;;13.92;36.31;101476.06;109635;1258;22424;-80
2022/03/16 10:59:55;;;;;;;35.40;31.20;;;;;;;13.63;36.71;101474.28;110115;1259;21982;-80
2022/03/16 11:02:33;;;;;;;36.10;32.80;;;;;;;13.41;36.82;101472.37;109919;1260;23052;-79
2022/03/16 11:05:04;;;;;;;37.70;33.90;;;;;;;13.32;37.61;101469.23;110091;1262;21979;-79
2022/03/16 11:07:36;;;;;;;37.00;33.30;;;;;;;13.55;38.13;101471.56;109360;1265;22000;-79
2022/03/16 11:10:09;;;;;;;36.40;32.70;;;;;;;13.86;37.91;101480.73;109393;1265;23804;-79
2022/03/16 11:15:31;;;;;;;;;;;;;;;13.62;36.55;101478.48;110022;1260;21946;-79
2022/03/16 11:18:01;;;;;;;33.40;30.20;;;;;;;13.28;36.91;101470.46;110041;1259;22075;-80
2022/03/16 11:20:32;;;;;;;36.80;33.50;;;;;;;13.27;37.92;101475.35;110296;1261;21981;-79
2022/03/16 11:26:28;;;;;;;36.00;32.50;;;;;;;13.65;38.04;101473.00;110189;1259;22735;-80
2022/03/16 11:29:26;;;;;;;37.70;34.20;;;;;;;13.82;37.82;101481.83;110113;1260;22769;-79
2022/03/16 11:32:16;;;;;;;37.40;34.00;;;;;;;13.84;37.33;101481.63;110384;1255;23706;-80
2022/03/16 11:35:28;;;;;;;36.60;33.10;;;;;;;13.76;37.08;101477.55;110364;1255;21950;-83
2022/03/16 11:38:17;;;;;;;34.50;31.20;;;;;;;13.52;36.78;101474.23;110756;1256;23575;-81
2022/03/16 11:40:51;;;;;;;37.50;33.60;;;;;;;13.27;36.92;101478.73;110953;1254;23437;-85
2022/03/16 11:43:25;;;;;;;35.20;31.70;;;;;;;13.03;37.24;101479.86;110251;1259;22718;-82
2022/03/16 11:46:00;;;;;;;39.10;35.50;;;;;;;12.94;37.75;101480.16;110317;1260;22127;-82
2022/03/16 11:48:34;;;;;;;40.00;36.20;;;;;;;12.86;37.87;101482.30;110188;1260;23588;-82
2022/03/16 11:51:11;;;;;;;40.90;37.20;;;;;;;12.84;37.90;101480.42;110536;1259;23671;-81
2022/03/16 11:56:39;;;;;;;39.00;35.50;;;;;;;12.82;37.74;101482.43;109836;1264;23602;-82
2022/03/16 11:59:49;;;;;;;39.10;35.60;;;;;;;12.83;37.73;101478.96;109645;1264;21993;-82
2022/03/16 12:02:27;;;;;;;40.50;36.50;;;;;;;12.86;37.71;101472.95;109736;1265;22134;-84
2022/03/16 12:05:26;;;;;;;39.20;35.20;;;;;;;12.92;37.87;101465.66;109195;1273;22036;-83